createdAt,value
2023-03-11T00:00:59.203Z,36
2023-03-11T00:02:02.793Z,36
2023-03-11T00:03:06.703Z,36
2023-03-11T00:04:10.633Z,36
2023-03-11T00:05:14.020Z,36
2023-03-11T00:06:17.660Z,36
2023-03-11T00:07:20.977Z,36
2023-03-11T00:08:24.296Z,36
2023-03-11T00:09:27.623Z,36
2023-03-11T00:10:31.041Z,36
2023-03-11T00:11:34.379Z,36
2023-03-11T00:12:37.672Z,36
2023-03-11T00:13:41.009Z,36
2023-03-11T00:14:44.617Z,36
2023-03-11T00:15:47.971Z,36
2023-03-11T00:16:51.382Z,36
2023-03-11T00:17:54.873Z,36
2023-03-11T00:18:58.142Z,36
2023-03-11T00:20:01.424Z,36
2023-03-11T00:21:04.785Z,36
2023-03-11T00:22:08.075Z,36
2023-03-11T00:23:11.610Z,36
2023-03-11T00:24:14.915Z,36
2023-03-11T00:25:18.216Z,36
2023-03-11T00:26:21.753Z,36
2023-03-11T00:27:25.033Z,36
2023-03-11T00:28:28.336Z,36
2023-03-11T00:29:31.664Z,36
2023-03-11T00:30:35.099Z,36
2023-03-11T00:31:38.648Z,36
2023-03-11T00:32:42.036Z,36
2023-03-11T00:33:45.620Z,36
2023-03-11T00:34:48.886Z,36
2023-03-11T00:35:52.317Z,36
2023-03-11T00:36:55.711Z,36
2023-03-11T00:37:58.983Z,36
2023-03-11T00:39:02.621Z,36
2023-03-11T00:40:05.957Z,36
2023-03-11T00:41:09.218Z,36
2023-03-11T00:42:12.707Z,36
2023-03-11T00:43:15.986Z,36
2023-03-11T00:44:19.305Z,36
2023-03-11T00:45:22.698Z,36
2023-03-11T00:46:26.156Z,36
2023-03-11T00:47:29.876Z,36
2023-03-11T00:48:33.168Z,36
2023-03-11T00:49:36.659Z,36
2023-03-11T00:50:39.932Z,36
2023-03-11T00:51:43.268Z,36
2023-03-11T00:52:46.662Z,36
2023-03-11T00:53:49.960Z,36
2023-03-11T00:54:53.510Z,35
2023-03-11T00:55:56.802Z,35
2023-03-11T00:57:00.133Z,34
2023-03-11T00:58:03.661Z,34
2023-03-11T00:59:06.937Z,34
2023-03-11T01:00:10.202Z,34
2023-03-11T01:01:13.794Z,34
2023-03-11T01:02:17.116Z,34
2023-03-11T01:03:20.659Z,34
2023-03-11T01:04:24.059Z,34
2023-03-11T01:05:27.701Z,34
2023-03-11T01:06:44.966Z,33
2023-03-11T01:07:49.060Z,33
2023-03-11T01:08:52.346Z,33
2023-03-11T01:09:55.643Z,34
2023-03-11T01:10:58.943Z,34
2023-03-11T01:12:02.652Z,35
2023-03-11T01:13:05.941Z,35
2023-03-11T01:14:09.240Z,35
2023-03-11T01:15:12.642Z,35
2023-03-11T01:16:16.018Z,35
2023-03-11T01:17:19.459Z,35
2023-03-11T01:18:22.720Z,35
2023-03-11T01:19:26.006Z,36
2023-03-11T01:20:29.571Z,35
2023-03-11T01:21:32.866Z,35
2023-03-11T01:22:36.184Z,36
2023-03-11T01:23:39.654Z,36
2023-03-11T01:24:42.942Z,36
2023-03-11T01:25:46.254Z,36
2023-03-11T01:26:49.661Z,36
2023-03-11T01:27:52.980Z,36
2023-03-11T01:28:56.562Z,36
2023-03-11T01:30:00.049Z,36
2023-03-11T01:31:03.571Z,36
2023-03-11T01:32:07.075Z,36
2023-03-11T01:33:10.401Z,36
2023-03-11T01:34:13.670Z,36
2023-03-11T01:35:16.944Z,36
2023-03-11T01:36:20.229Z,36
2023-03-11T01:37:23.763Z,36
2023-03-11T01:38:27.065Z,36
2023-03-11T01:39:30.650Z,36
2023-03-11T01:40:33.943Z,36
2023-03-11T01:41:37.225Z,36
2023-03-11T01:42:40.705Z,36
2023-03-11T01:43:44.025Z,36
2023-03-11T01:44:47.568Z,36
2023-03-11T01:45:50.880Z,36
2023-03-11T01:46:54.490Z,36
2023-03-11T01:47:58.055Z,36
2023-03-11T01:49:01.355Z,35
2023-03-11T01:50:04.659Z,35
2023-03-11T01:51:07.939Z,35
2023-03-11T01:52:11.231Z,35
2023-03-11T01:53:14.800Z,35
2023-03-11T01:54:18.056Z,35
2023-03-11T01:55:21.389Z,35
2023-03-11T01:56:24.654Z,36
2023-03-11T01:57:27.932Z,36
2023-03-11T01:58:31.242Z,36
2023-03-11T01:59:34.679Z,36
2023-03-11T02:00:38.121Z,36
2023-03-11T02:01:41.719Z,36
2023-03-11T02:02:45.205Z,36
2023-03-11T02:03:48.736Z,36
2023-03-11T02:04:52.028Z,36
2023-03-11T02:05:55.300Z,36
2023-03-11T02:06:58.692Z,36
2023-03-11T02:08:02.005Z,36
2023-03-11T02:09:05.542Z,36
2023-03-11T02:10:08.802Z,36
2023-03-11T02:11:12.078Z,36
2023-03-11T02:12:15.366Z,36
2023-03-11T02:13:18.696Z,36
2023-03-11T02:14:21.992Z,36
2023-03-11T02:15:25.295Z,36
2023-03-11T02:16:28.995Z,36
2023-03-11T02:17:32.708Z,36
2023-03-11T02:18:36.004Z,36
2023-03-11T02:19:39.281Z,36
2023-03-11T02:20:42.733Z,36
2023-03-11T02:21:46.003Z,36
2023-03-11T02:22:49.287Z,36
2023-03-11T02:23:52.751Z,36
2023-03-11T02:24:56.072Z,36
2023-03-11T02:25:59.671Z,36
2023-03-11T02:27:02.973Z,36
2023-03-11T02:28:06.263Z,36
2023-03-11T02:29:09.736Z,36
2023-03-11T02:30:13.061Z,36
2023-03-11T02:31:16.568Z,36
2023-03-11T02:32:20.265Z,36
2023-03-11T02:33:23.930Z,36
2023-03-11T02:34:27.243Z,36
2023-03-11T02:35:30.792Z,36
2023-03-11T02:36:34.122Z,36
2023-03-11T02:37:37.410Z,36
2023-03-11T02:38:40.705Z,36
2023-03-11T02:39:43.974Z,36
2023-03-11T02:40:47.241Z,36
2023-03-11T02:41:50.746Z,36
2023-03-11T02:42:54.009Z,36
2023-03-11T02:43:57.298Z,36
2023-03-11T02:45:00.734Z,36
2023-03-11T02:46:04.038Z,36
2023-03-11T02:47:07.336Z,36
2023-03-11T02:48:10.727Z,36
2023-03-11T02:49:14.015Z,36
2023-03-11T02:50:17.592Z,36
2023-03-11T02:51:20.870Z,36
2023-03-11T02:52:24.175Z,36
2023-03-11T02:53:27.724Z,36
2023-03-11T02:54:31.059Z,36
2023-03-11T02:55:34.363Z,36
2023-03-11T02:56:37.710Z,36
2023-03-11T02:57:40.984Z,36
2023-03-11T02:58:44.258Z,36
2023-03-11T02:59:47.799Z,36
2023-03-11T03:00:51.183Z,36
2023-03-11T03:01:54.750Z,36
2023-03-11T03:02:58.038Z,36
2023-03-11T03:04:01.530Z,36
2023-03-11T03:05:04.857Z,36
2023-03-11T03:06:08.138Z,36
2023-03-11T03:07:11.682Z,36
2023-03-11T03:08:14.992Z,36
2023-03-11T03:09:18.303Z,36
2023-03-11T03:10:24.758Z,36
2023-03-11T03:11:28.059Z,36
2023-03-11T03:12:31.346Z,36
2023-03-11T03:13:34.699Z,36
2023-03-11T03:14:37.987Z,36
2023-03-11T03:15:41.263Z,36
2023-03-11T03:16:45.126Z,36
2023-03-11T03:17:48.720Z,36
2023-03-11T03:18:52.020Z,36
2023-03-11T03:19:55.334Z,36
2023-03-11T03:20:58.728Z,36
2023-03-11T03:22:02.002Z,36
2023-03-11T03:23:05.277Z,36
2023-03-11T03:24:08.832Z,36
2023-03-11T03:25:12.206Z,36
2023-03-11T03:26:15.818Z,36
2023-03-11T03:27:19.097Z,36
2023-03-11T03:28:22.377Z,36
2023-03-11T03:29:25.728Z,36
2023-03-11T03:30:29.006Z,36
2023-03-11T03:31:32.616Z,36
2023-03-11T03:32:36.216Z,36
2023-03-11T03:33:39.732Z,36
2023-03-11T03:34:43.023Z,36
2023-03-11T03:35:46.409Z,36
2023-03-11T03:36:49.785Z,36
2023-03-11T03:37:53.068Z,36
2023-03-11T03:38:56.594Z,36
2023-03-11T03:39:59.896Z,36
2023-03-11T03:41:03.191Z,36
2023-03-11T03:42:06.723Z,36
2023-03-11T03:43:09.999Z,36
2023-03-11T03:44:13.282Z,36
2023-03-11T03:45:16.734Z,36
2023-03-11T03:46:20.205Z,36
2023-03-11T03:47:23.894Z,36
2023-03-11T03:48:27.160Z,36
2023-03-11T03:49:30.760Z,36
2023-03-11T03:50:34.037Z,36
2023-03-11T03:51:37.348Z,36
2023-03-11T03:52:40.729Z,36
2023-03-11T03:53:44.012Z,36
2023-03-11T03:54:47.286Z,36
2023-03-11T03:55:50.832Z,36
2023-03-11T03:56:54.176Z,36
2023-03-11T03:57:57.486Z,36
2023-03-11T03:59:01.077Z,36
2023-03-11T04:00:04.372Z,36
2023-03-11T04:01:07.739Z,36
2023-03-11T04:02:11.138Z,36
2023-03-11T04:03:14.803Z,36
2023-03-11T04:04:18.121Z,36
2023-03-11T04:05:21.431Z,36
2023-03-11T04:06:24.778Z,36
2023-03-11T04:07:28.096Z,36
2023-03-11T04:08:31.396Z,36
2023-03-11T04:09:34.747Z,36
2023-03-11T04:10:38.031Z,36
2023-03-11T04:11:41.328Z,36
2023-03-11T04:12:44.739Z,36
2023-03-11T04:13:48.045Z,36
2023-03-11T04:14:51.324Z,36
2023-03-11T04:15:54.756Z,37
2023-03-11T04:16:58.178Z,36
2023-03-11T04:18:01.747Z,36
2023-03-11T04:19:05.026Z,36
2023-03-11T04:20:08.307Z,36
2023-03-11T04:21:11.875Z,36
2023-03-11T04:22:15.340Z,36
2023-03-11T04:23:18.767Z,36
2023-03-11T04:24:22.039Z,36
2023-03-11T04:25:25.324Z,36
2023-03-11T04:26:28.758Z,36
2023-03-11T04:27:32.070Z,36
2023-03-11T04:28:35.326Z,36
2023-03-11T04:29:38.876Z,36
2023-03-11T04:30:42.389Z,36
2023-03-11T04:31:45.758Z,36
2023-03-11T04:32:49.371Z,36
2023-03-11T04:33:52.769Z,36
2023-03-11T04:34:56.042Z,36
2023-03-11T04:35:59.718Z,36
2023-03-11T04:37:03.269Z,36
2023-03-11T04:38:06.756Z,36
2023-03-11T04:39:10.071Z,36
2023-03-11T04:40:13.335Z,36
2023-03-11T04:41:16.757Z,36
2023-03-11T04:42:20.025Z,36
2023-03-11T04:43:23.306Z,36
2023-03-11T04:44:26.861Z,36
2023-03-11T04:45:30.142Z,36
2023-03-11T04:46:33.506Z,36
2023-03-11T04:47:37.066Z,36
2023-03-11T04:48:40.340Z,36
2023-03-11T04:49:43.737Z,36
2023-03-11T04:50:46.999Z,36
2023-03-11T04:51:50.280Z,36
2023-03-11T04:52:53.866Z,36
2023-03-11T04:53:57.378Z,36
2023-03-11T04:55:00.940Z,36
2023-03-11T04:56:04.219Z,36
2023-03-11T04:57:07.492Z,36
2023-03-11T04:58:10.787Z,36
2023-03-11T04:59:16.900Z,36
2023-03-11T05:00:20.212Z,36
2023-03-11T05:01:23.845Z,36
2023-03-11T05:02:27.208Z,36
2023-03-11T05:03:30.750Z,36
2023-03-11T05:04:34.238Z,36
2023-03-11T05:05:37.760Z,36
2023-03-11T05:06:41.055Z,36
2023-03-11T05:07:44.325Z,36
2023-03-11T05:08:48.017Z,36
2023-03-11T05:09:51.292Z,36
2023-03-11T05:10:54.795Z,36
2023-03-11T05:11:58.145Z,36
2023-03-11T05:13:01.415Z,36
2023-03-11T05:14:04.763Z,36
2023-03-11T05:15:08.114Z,36
2023-03-11T05:16:11.754Z,36
2023-03-11T05:17:15.211Z,36
2023-03-11T05:18:18.500Z,36
2023-03-11T05:19:21.807Z,36
2023-03-11T05:20:25.103Z,36
2023-03-11T05:21:28.367Z,36
2023-03-11T05:22:31.798Z,36
2023-03-11T05:23:35.066Z,36
2023-03-11T05:24:38.371Z,36
2023-03-11T05:25:41.914Z,36
2023-03-11T05:26:48.717Z,36
2023-03-11T05:27:52.031Z,36
2023-03-11T05:28:55.325Z,36
2023-03-11T05:29:58.789Z,36
2023-03-11T05:31:02.301Z,36
2023-03-11T05:32:05.985Z,36
2023-03-11T05:33:09.271Z,36
2023-03-11T05:34:12.821Z,36
2023-03-11T05:35:16.451Z,36
2023-03-11T05:36:19.771Z,35
2023-03-11T05:37:23.044Z,35
2023-03-11T05:38:26.367Z,35
2023-03-11T05:39:29.887Z,35
2023-03-11T05:40:33.202Z,34
2023-03-11T05:41:36.490Z,34
2023-03-11T05:42:39.809Z,34
2023-03-11T05:43:43.112Z,34
2023-03-11T05:44:46.408Z,35
2023-03-11T05:45:49.814Z,35
2023-03-11T05:46:53.409Z,36
2023-03-11T05:47:57.111Z,36
2023-03-11T05:49:00.390Z,36
2023-03-11T05:50:03.780Z,36
2023-03-11T05:51:07.070Z,36
2023-03-11T05:52:10.337Z,36
2023-03-11T05:53:13.792Z,36
2023-03-11T05:54:17.073Z,36
2023-03-11T05:55:20.332Z,36
2023-03-11T05:56:23.875Z,36
2023-03-11T05:57:27.180Z,36
2023-03-11T05:58:30.660Z,36
2023-03-11T05:59:34.154Z,36
2023-03-11T06:00:37.432Z,36
2023-03-11T06:01:40.816Z,36
2023-03-11T06:02:44.143Z,36
2023-03-11T06:03:47.809Z,36
2023-03-11T06:04:51.745Z,36
2023-03-11T06:05:55.466Z,36
2023-03-11T06:06:58.847Z,36
2023-03-11T06:08:02.379Z,36
2023-03-11T06:09:05.902Z,36
2023-03-11T06:10:09.176Z,36
2023-03-11T06:11:12.465Z,36
2023-03-11T06:12:15.793Z,36
2023-03-11T06:13:19.104Z,36
2023-03-11T06:14:22.528Z,36
2023-03-11T06:15:25.811Z,36
2023-03-11T06:16:29.389Z,36
2023-03-11T06:17:33.014Z,36
2023-03-11T06:18:36.359Z,36
2023-03-11T06:19:40.036Z,36
2023-03-11T06:20:43.512Z,36
2023-03-11T06:21:46.804Z,36
2023-03-11T06:22:50.073Z,36
2023-03-11T06:23:53.353Z,36
2023-03-11T06:24:56.882Z,36
2023-03-11T06:26:00.183Z,36
2023-03-11T06:27:03.506Z,36
2023-03-11T06:28:06.809Z,36
2023-03-11T06:29:10.106Z,36
2023-03-11T06:30:13.403Z,36
2023-03-11T06:31:17.075Z,36
2023-03-11T06:32:20.899Z,35
2023-03-11T06:33:24.216Z,35
2023-03-11T06:34:27.533Z,35
2023-03-11T06:35:31.097Z,35
2023-03-11T06:36:34.434Z,35
2023-03-11T06:37:37.814Z,36
2023-03-11T06:38:41.093Z,36
2023-03-11T06:39:44.408Z,36
2023-03-11T06:40:47.916Z,36
2023-03-11T06:41:51.204Z,35
2023-03-11T06:42:54.496Z,35
2023-03-11T06:43:57.822Z,35
2023-03-11T06:45:01.105Z,34
2023-03-11T06:46:04.565Z,34
2023-03-11T06:47:08.023Z,34
2023-03-11T06:48:11.308Z,34
2023-03-11T06:49:14.824Z,34
2023-03-11T06:50:18.147Z,34
2023-03-11T06:51:21.447Z,34
2023-03-11T06:52:24.822Z,34
2023-03-11T06:53:28.098Z,34
2023-03-11T06:54:31.397Z,35
2023-03-11T06:55:34.821Z,35
2023-03-11T06:56:38.119Z,35
2023-03-11T06:57:41.688Z,36
2023-03-11T06:58:44.980Z,36
2023-03-11T06:59:48.300Z,36
2023-03-11T07:00:51.855Z,36
2023-03-11T07:01:55.287Z,36
2023-03-11T07:02:58.820Z,36
2023-03-11T07:04:02.230Z,36
2023-03-11T07:05:05.837Z,36
2023-03-11T07:06:09.187Z,36
2023-03-11T07:07:12.455Z,36
2023-03-11T07:08:15.812Z,36
2023-03-11T07:09:19.101Z,36
2023-03-11T07:10:22.411Z,36
2023-03-11T07:11:26.739Z,36
2023-03-11T07:12:30.190Z,36
2023-03-11T07:13:33.482Z,36
2023-03-11T07:14:36.829Z,35
2023-03-11T07:15:40.128Z,35
2023-03-11T07:16:43.687Z,35
2023-03-11T07:17:47.171Z,35
2023-03-11T07:18:50.702Z,35
2023-03-11T07:19:53.993Z,36
2023-03-11T07:20:57.276Z,36
2023-03-11T07:22:00.608Z,35
2023-03-11T07:23:03.912Z,35
2023-03-11T07:24:07.225Z,36
2023-03-11T07:25:10.544Z,36
2023-03-11T07:26:14.419Z,36
2023-03-11T07:27:18.568Z,36
2023-03-11T07:28:21.899Z,36
2023-03-11T07:29:25.188Z,37
2023-03-11T07:30:28.544Z,37
2023-03-11T07:31:32.084Z,37
2023-03-11T07:32:35.803Z,37
2023-03-11T07:33:39.185Z,37
2023-03-11T07:34:42.732Z,37
2023-03-11T07:35:46.450Z,37
2023-03-11T07:36:49.847Z,37
2023-03-11T07:37:53.182Z,37
2023-03-11T07:38:56.713Z,37
2023-03-11T07:39:59.984Z,37
2023-03-11T07:41:03.292Z,37
2023-03-11T07:42:06.574Z,37
2023-03-11T07:43:10.122Z,37
2023-03-11T07:44:13.864Z,37
2023-03-11T07:45:17.684Z,37
2023-03-11T07:46:21.169Z,37
2023-03-11T07:47:25.158Z,37
2023-03-11T07:48:28.435Z,37
2023-03-11T07:49:31.879Z,37
2023-03-11T07:50:35.170Z,37
2023-03-11T07:51:38.723Z,37
2023-03-11T07:52:41.990Z,37
2023-03-11T07:53:45.352Z,37
2023-03-11T07:54:48.880Z,37
2023-03-11T07:55:52.135Z,37
2023-03-11T07:56:55.580Z,37
2023-03-11T07:57:58.856Z,37
2023-03-11T07:59:02.152Z,37
2023-03-11T08:00:05.731Z,37
2023-03-11T08:01:09.028Z,37
2023-03-11T08:02:12.421Z,36
2023-03-11T08:03:15.894Z,36
2023-03-11T08:04:19.226Z,35
2023-03-11T08:05:22.677Z,35
2023-03-11T08:06:25.969Z,35
2023-03-11T08:07:29.236Z,35
2023-03-11T08:08:32.766Z,35
2023-03-11T08:09:36.093Z,36
2023-03-11T08:10:39.402Z,36
2023-03-11T08:11:42.858Z,36
2023-03-11T08:12:46.152Z,36
2023-03-11T08:13:49.439Z,36
2023-03-11T08:14:52.863Z,36
2023-03-11T08:15:56.485Z,36
2023-03-11T08:17:00.154Z,36
2023-03-11T08:18:03.431Z,36
2023-03-11T08:19:06.856Z,35
2023-03-11T08:20:10.158Z,35
2023-03-11T08:21:13.462Z,35
2023-03-11T08:22:16.876Z,35
2023-03-11T08:23:20.174Z,36
2023-03-11T08:24:23.470Z,36
2023-03-11T08:25:27.059Z,36
2023-03-11T08:26:30.367Z,36
2023-03-11T08:27:33.878Z,36
2023-03-11T08:28:37.145Z,36
2023-03-11T08:29:40.419Z,36
2023-03-11T08:30:43.955Z,36
2023-03-11T08:31:47.286Z,37
2023-03-11T08:32:51.055Z,37
2023-03-11T08:33:54.707Z,36
2023-03-11T08:34:58.908Z,36
2023-03-11T08:36:02.417Z,36
2023-03-11T08:37:06.236Z,35
2023-03-11T08:38:09.539Z,35
2023-03-11T08:39:13.068Z,35
2023-03-11T08:40:16.444Z,35
2023-03-11T08:41:19.927Z,35
2023-03-11T08:42:23.346Z,35
2023-03-11T08:43:26.878Z,35
2023-03-11T08:44:30.336Z,36
2023-03-11T08:45:33.893Z,36
2023-03-11T08:46:37.676Z,36
2023-03-11T08:47:41.298Z,36
2023-03-11T08:48:44.882Z,36
2023-03-11T08:49:48.139Z,36
2023-03-11T08:50:54.921Z,36
2023-03-11T08:51:58.319Z,36
2023-03-11T08:53:01.615Z,36
2023-03-11T08:54:04.905Z,36
2023-03-11T08:55:08.187Z,36
2023-03-11T08:56:11.463Z,36
2023-03-11T08:57:15.012Z,36
2023-03-11T08:58:18.309Z,36
2023-03-11T08:59:21.610Z,36
2023-03-11T09:00:24.925Z,36
2023-03-11T09:01:28.217Z,36
2023-03-11T09:02:31.673Z,36
2023-03-11T09:03:35.060Z,37
2023-03-11T09:04:38.342Z,34
2023-03-11T09:05:42.057Z,31
2023-03-11T09:06:45.432Z,29
2023-03-11T09:07:48.893Z,29
2023-03-11T09:08:52.192Z,29
2023-03-11T09:09:55.486Z,28
2023-03-11T09:10:58.898Z,28
2023-03-11T09:12:02.179Z,28
2023-03-11T09:13:05.501Z,27
2023-03-11T09:14:08.978Z,27
2023-03-11T09:15:12.241Z,27
2023-03-11T09:16:15.695Z,27
2023-03-11T09:17:19.185Z,26
2023-03-11T09:18:22.651Z,27
2023-03-11T09:19:26.282Z,28
2023-03-11T09:20:29.562Z,29
2023-03-11T09:21:32.891Z,30
2023-03-11T09:22:36.193Z,30
2023-03-11T09:23:43.589Z,31
2023-03-11T09:24:48.030Z,31
2023-03-11T09:25:51.313Z,31
2023-03-11T09:26:54.624Z,31
2023-03-11T09:27:57.920Z,31
2023-03-11T09:29:01.242Z,31
2023-03-11T09:30:04.510Z,31
2023-03-11T09:31:08.091Z,31
2023-03-11T09:32:11.442Z,32
2023-03-11T09:33:14.968Z,32
2023-03-11T09:34:18.257Z,32
2023-03-11T09:35:21.685Z,32
2023-03-11T09:36:25.101Z,32
2023-03-11T09:37:28.378Z,32
2023-03-11T09:38:31.898Z,32
2023-03-11T09:39:35.171Z,33
2023-03-11T09:40:38.486Z,32
2023-03-11T09:41:57.354Z,32
2023-03-11T09:43:00.188Z,32
2023-03-11T09:44:03.480Z,32
2023-03-11T09:45:06.924Z,32
2023-03-11T09:46:10.207Z,32
2023-03-11T09:47:13.516Z,33
2023-03-11T09:48:16.915Z,32
2023-03-11T09:49:20.222Z,32
2023-03-11T09:50:23.914Z,32
2023-03-11T09:51:27.483Z,32
2023-03-11T09:52:30.968Z,32
2023-03-11T09:53:34.800Z,32
2023-03-11T09:54:38.463Z,32
2023-03-11T09:55:42.005Z,32
2023-03-11T09:56:45.320Z,32
2023-03-11T09:57:48.633Z,32
2023-03-11T09:58:51.899Z,32
2023-03-11T09:59:55.216Z,32
2023-03-11T10:00:58.520Z,32
2023-03-11T10:02:01.961Z,32
2023-03-11T10:03:05.488Z,32
2023-03-11T10:04:09.074Z,32
2023-03-11T10:05:12.394Z,32
2023-03-11T10:06:15.916Z,32
2023-03-11T10:07:19.187Z,32
2023-03-11T10:08:22.532Z,32
2023-03-11T10:09:25.914Z,32
2023-03-11T10:10:29.195Z,32
2023-03-11T10:11:32.529Z,33
2023-03-11T10:12:36.113Z,34
2023-03-11T10:13:39.447Z,33
2023-03-11T10:14:42.921Z,33
2023-03-11T10:15:46.212Z,34
2023-03-11T10:16:49.526Z,34
2023-03-11T10:17:52.916Z,35
2023-03-11T10:18:56.237Z,35
2023-03-11T10:19:59.523Z,35
2023-03-11T10:21:02.997Z,34
2023-03-11T10:22:06.266Z,35
2023-03-11T10:23:09.564Z,35
2023-03-11T10:24:12.920Z,35
2023-03-11T10:25:16.257Z,37
2023-03-11T10:26:19.568Z,37
2023-03-11T10:27:22.977Z,37
2023-03-11T10:28:26.267Z,37
2023-03-11T10:29:29.798Z,37
2023-03-11T10:30:33.082Z,37
2023-03-11T10:31:36.608Z,37
2023-03-11T10:32:40.189Z,37
2023-03-11T10:33:47.891Z,37
2023-03-11T10:34:51.283Z,37
2023-03-11T10:35:54.632Z,37
2023-03-11T10:36:58.119Z,37
2023-03-11T10:38:01.399Z,37
2023-03-11T10:39:04.669Z,37
2023-03-11T10:40:07.988Z,37
2023-03-11T10:41:11.318Z,37
2023-03-11T10:42:18.087Z,37
2023-03-11T10:43:21.386Z,37
2023-03-11T10:44:24.671Z,37
2023-03-11T10:45:28.006Z,37
2023-03-11T10:46:31.445Z,37
2023-03-11T10:47:34.925Z,37
2023-03-11T10:48:38.221Z,37
2023-03-11T10:49:41.522Z,37
2023-03-11T10:50:45.070Z,38
2023-03-11T10:51:48.344Z,37
2023-03-11T10:52:51.635Z,37
2023-03-11T10:53:54.941Z,38
2023-03-11T10:54:58.254Z,37
2023-03-11T10:56:01.584Z,37
2023-03-11T10:57:04.942Z,37
2023-03-11T10:58:08.226Z,38
2023-03-11T10:59:11.545Z,38
2023-03-11T11:00:15.056Z,37
2023-03-11T11:01:18.566Z,38
2023-03-11T11:02:22.130Z,37
2023-03-11T11:03:25.402Z,37
2023-03-11T11:04:29.136Z,38
2023-03-11T11:05:32.869Z,38
2023-03-11T11:06:36.187Z,37
2023-03-11T11:07:39.514Z,38
2023-03-11T11:08:42.959Z,37
2023-03-11T11:09:46.219Z,38
2023-03-11T11:10:49.508Z,37
2023-03-11T11:11:52.998Z,37
2023-03-11T11:12:56.481Z,37
2023-03-11T11:14:00.065Z,37
2023-03-11T11:15:03.358Z,37
2023-03-11T11:16:06.649Z,37
2023-03-11T11:17:09.990Z,37
2023-03-11T11:18:13.266Z,37
2023-03-11T11:19:16.621Z,37
2023-03-11T11:20:20.146Z,37
2023-03-11T11:21:23.456Z,37
2023-03-11T11:22:27.008Z,37
2023-03-11T11:23:30.288Z,37
2023-03-11T11:24:33.559Z,37
2023-03-11T11:25:36.997Z,37
2023-03-11T11:26:40.293Z,37
2023-03-11T11:27:43.609Z,37
2023-03-11T11:28:46.978Z,37
2023-03-11T11:29:50.281Z,37
2023-03-11T11:30:53.886Z,37
2023-03-11T11:31:57.202Z,37
2023-03-11T11:33:00.498Z,37
2023-03-11T11:34:03.958Z,37
2023-03-11T11:35:07.253Z,37
2023-03-11T11:36:10.562Z,37
2023-03-11T11:37:13.968Z,37
2023-03-11T11:38:17.308Z,37
2023-03-11T11:39:20.836Z,36
2023-03-11T11:40:24.139Z,36
2023-03-11T11:41:27.418Z,36
2023-03-11T11:42:30.959Z,37
2023-03-11T11:43:34.267Z,37
2023-03-11T11:44:37.632Z,37
2023-03-11T11:45:41.019Z,37
2023-03-11T11:46:44.355Z,37
2023-03-11T11:47:47.877Z,37
2023-03-11T11:48:51.205Z,37
2023-03-11T11:49:54.463Z,37
2023-03-11T11:50:57.969Z,37
2023-03-11T11:52:01.292Z,37
2023-03-11T11:53:04.583Z,37
2023-03-11T11:54:08.210Z,37
2023-03-11T11:55:11.484Z,37
2023-03-11T11:56:14.985Z,37
2023-03-11T11:57:18.256Z,37
2023-03-11T11:58:21.545Z,37
2023-03-11T11:59:25.159Z,37
2023-03-11T12:00:28.973Z,37
2023-03-11T12:01:32.254Z,37
2023-03-11T12:02:35.565Z,37
2023-03-11T12:03:39.363Z,37
2023-03-11T12:04:44.885Z,37
2023-03-11T12:05:48.394Z,37
2023-03-11T12:06:51.722Z,37
2023-03-11T12:07:55.021Z,37
2023-03-11T12:08:58.293Z,37
2023-03-11T12:10:21.624Z,37
2023-03-11T12:11:20.969Z,37
2023-03-11T12:12:24.280Z,37
2023-03-11T12:13:27.553Z,37
2023-03-11T12:14:30.973Z,37
2023-03-11T12:15:34.415Z,37
2023-03-11T12:16:38.006Z,37
2023-03-11T12:17:41.319Z,37
2023-03-11T12:18:44.897Z,37
2023-03-11T12:19:48.183Z,37
2023-03-11T12:20:51.494Z,37
2023-03-11T12:21:55.004Z,37
2023-03-11T12:22:58.324Z,37
2023-03-11T12:24:01.612Z,37
2023-03-11T12:25:05.043Z,37
2023-03-11T12:26:08.400Z,37
2023-03-11T12:27:11.935Z,37
2023-03-11T12:28:15.203Z,37
2023-03-11T12:29:18.506Z,37
2023-03-11T12:30:21.992Z,37
2023-03-11T12:31:25.537Z,37
2023-03-11T12:32:29.091Z,37
2023-03-11T12:33:32.465Z,37
2023-03-11T12:34:35.989Z,37
2023-03-11T12:35:39.382Z,37
2023-03-11T12:36:42.809Z,37
2023-03-11T12:37:46.108Z,37
2023-03-11T12:38:49.418Z,37
2023-03-11T12:39:52.703Z,37
2023-03-11T12:40:55.992Z,37
2023-03-11T12:41:59.447Z,37
2023-03-11T12:43:03.019Z,37
2023-03-11T12:44:06.302Z,37
2023-03-11T12:45:09.816Z,36
2023-03-11T12:46:13.351Z,37
2023-03-11T12:47:17.028Z,37
2023-03-11T12:48:20.308Z,36
2023-03-11T12:49:23.897Z,36
2023-03-11T12:50:27.202Z,36
2023-03-11T12:51:30.505Z,36
2023-03-11T12:52:34.023Z,36
2023-03-11T12:53:37.280Z,36
2023-03-11T12:54:40.577Z,36
2023-03-11T12:55:43.994Z,36
2023-03-11T12:56:47.257Z,36
2023-03-11T12:57:50.557Z,36
2023-03-11T12:58:54.101Z,36
2023-03-11T12:59:57.398Z,36
2023-03-11T13:01:00.693Z,36
2023-03-11T13:02:04.109Z,36
2023-03-11T13:03:07.725Z,36
2023-03-11T13:04:11.119Z,36
2023-03-11T13:05:14.413Z,36
2023-03-11T13:06:17.919Z,36
2023-03-11T13:07:21.204Z,36
2023-03-11T13:08:24.567Z,36
2023-03-11T13:09:31.519Z,36
2023-03-11T13:10:35.222Z,36
2023-03-11T13:11:38.521Z,36
2023-03-11T13:12:42.022Z,36
2023-03-11T13:13:45.360Z,36
2023-03-11T13:14:48.642Z,36
2023-03-11T13:15:52.073Z,36
2023-03-11T13:16:55.440Z,36
2023-03-11T13:17:58.746Z,36
2023-03-11T13:19:02.093Z,36
2023-03-11T13:20:05.384Z,36
2023-03-11T13:21:08.925Z,36
2023-03-11T13:22:12.215Z,36
2023-03-11T13:23:15.497Z,36
2023-03-11T13:24:19.084Z,36
2023-03-11T13:25:22.415Z,36
2023-03-11T13:26:25.721Z,36
2023-03-11T13:27:29.020Z,36
2023-03-11T13:28:32.296Z,36
2023-03-11T13:29:35.616Z,36
2023-03-11T13:30:39.142Z,36
2023-03-11T13:31:42.605Z,36
2023-03-11T13:32:46.274Z,36
2023-03-11T13:33:50.024Z,36
2023-03-11T13:34:53.416Z,36
2023-03-11T13:35:57.024Z,36
2023-03-11T13:37:00.501Z,36
2023-03-11T13:38:04.038Z,36
2023-03-11T13:39:07.320Z,36
2023-03-11T13:40:10.780Z,36
2023-03-11T13:41:14.311Z,36
2023-03-11T13:42:17.608Z,35
2023-03-11T13:43:23.907Z,35
2023-03-11T13:44:27.193Z,35
2023-03-11T13:45:30.674Z,34
2023-03-11T13:46:34.107Z,34
2023-03-11T13:47:37.410Z,34
2023-03-11T13:48:40.760Z,34
2023-03-11T13:49:44.057Z,34
2023-03-11T13:50:47.398Z,34
2023-03-11T13:51:50.907Z,34
2023-03-11T13:52:54.211Z,34
2023-03-11T13:53:57.513Z,34
2023-03-11T13:55:01.027Z,34
2023-03-11T13:56:04.371Z,34
2023-03-11T13:57:07.683Z,34
2023-03-11T13:58:11.052Z,34
2023-03-11T13:59:14.323Z,34
2023-03-11T14:00:18.019Z,34
2023-03-11T14:01:21.588Z,34
2023-03-11T14:02:25.086Z,34
2023-03-11T14:03:28.625Z,34
2023-03-11T14:04:32.040Z,34
2023-03-11T14:05:35.323Z,34
2023-03-11T14:06:38.923Z,35
2023-03-11T14:07:42.217Z,35
2023-03-11T14:08:45.522Z,35
2023-03-11T14:09:49.048Z,35
2023-03-11T14:10:52.318Z,35
2023-03-11T14:11:55.673Z,35
2023-03-11T14:12:59.058Z,35
2023-03-11T14:14:02.396Z,35
2023-03-11T14:15:05.920Z,35
2023-03-11T14:16:09.394Z,36
2023-03-11T14:17:13.093Z,35
2023-03-11T14:18:16.376Z,35
2023-03-11T14:19:19.829Z,34
2023-03-11T14:20:23.213Z,34
2023-03-11T14:21:26.537Z,35
2023-03-11T14:22:30.103Z,35
2023-03-11T14:23:33.393Z,35
2023-03-11T14:24:36.732Z,35
2023-03-11T14:25:40.047Z,35
2023-03-11T14:26:43.347Z,35
2023-03-11T14:27:46.640Z,36
2023-03-11T14:28:50.051Z,36
2023-03-11T14:29:53.340Z,36
2023-03-11T14:30:56.931Z,36
2023-03-11T14:32:00.480Z,36
2023-03-11T14:33:04.285Z,36
2023-03-11T14:34:07.598Z,36
2023-03-11T14:35:11.070Z,36
2023-03-11T14:36:14.524Z,36
2023-03-11T14:37:18.072Z,36
2023-03-11T14:38:21.438Z,36
2023-03-11T14:39:24.705Z,36
2023-03-11T14:40:28.079Z,36
2023-03-11T14:41:31.385Z,36
2023-03-11T14:42:34.648Z,36
2023-03-11T14:43:38.090Z,36
2023-03-11T14:44:41.368Z,36
2023-03-11T14:45:45.081Z,36
2023-03-11T14:46:48.641Z,36
2023-03-11T14:47:52.063Z,36
2023-03-11T14:48:55.385Z,36
2023-03-11T14:49:58.704Z,36
2023-03-11T14:51:02.068Z,36
2023-03-11T14:52:05.363Z,36
2023-03-11T14:53:08.655Z,36
2023-03-11T14:54:12.211Z,36
2023-03-11T14:55:15.502Z,36
2023-03-11T14:56:18.812Z,36
2023-03-11T14:57:22.136Z,36
2023-03-11T14:58:25.427Z,36
2023-03-11T14:59:28.699Z,36
2023-03-11T15:00:32.062Z,36
2023-03-11T15:01:35.609Z,36
2023-03-11T15:02:39.205Z,36
2023-03-11T15:03:42.506Z,36
2023-03-11T15:04:45.801Z,36
2023-03-11T15:05:49.070Z,36